Terminal Aerodrome Forecast
Issued by NWS

Home | Current Version | Previous Version | Text Only | Print | Product List | Glossary On
Versions: 1 2 3 4 5 6 7 8 9 10 11 12 13 14 15 16 17 18 19 20 21
545
FTUS42 KFFC 231135
TAFFTY
TAF
KFTY 231135Z 2312/2412 20006KT P6SM FEW008 SCT012 BKN150
     FM231500 21009KT P6SM SCT025
     FM231800 21011KT P6SM SCT035 PROB30 2400/2406 5SM TSRA BKN035CB
     FM240600 24008KT 6SM SHRA BKN006=

USA.gov is the U.S. government's official web portal to all federal, state and local government web resources and services.